createdAt,value
2016-12-20T00:00:39.262Z,1026.92
2016-12-20T00:01:49.226Z,1026.93
2016-12-20T00:02:59.208Z,1026.93
2016-12-20T00:04:09.187Z,1026.93
2016-12-20T00:05:19.454Z,1026.91
2016-12-20T00:06:29.727Z,1026.89
2016-12-20T00:07:39.996Z,1026.83
2016-12-20T00:08:49.676Z,1026.84
2016-12-20T00:09:59.672Z,1026.85
2016-12-20T00:11:09.948Z,1026.83
2016-12-20T00:12:19.934Z,1026.79
2016-12-20T00:13:29.941Z,1026.83
2016-12-20T00:14:39.909Z,1026.81
2016-12-20T00:15:49.880Z,1026.85
2016-12-20T00:16:59.540Z,1026.83
2016-12-20T00:18:09.503Z,1026.84
2016-12-20T00:19:19.474Z,1026.81
2016-12-20T00:20:29.748Z,1026.83
2016-12-20T00:21:39.732Z,1026.81
2016-12-20T00:22:49.695Z,1026.83
2016-12-20T00:24:00.067Z,1026.82
2016-12-20T00:25:10.022Z,1026.91
2016-12-20T00:26:20.301Z,1026.92
2016-12-20T00:27:30.153Z,1026.91
2016-12-20T00:28:40.127Z,1026.97
2016-12-20T00:29:50.409Z,1026.92
2016-12-20T00:31:00.688Z,1026.9
2016-12-20T00:32:10.956Z,1026.91
2016-12-20T00:33:21.254Z,1026.9
2016-12-20T00:34:31.523Z,1026.86
2016-12-20T00:35:41.791Z,1026.86
2016-12-20T00:36:52.070Z,1026.81
2016-12-20T00:38:02.338Z,1026.84
2016-12-20T00:39:11.996Z,1026.84
2016-12-20T00:40:21.954Z,1026.81
2016-12-20T00:41:31.606Z,1026.81
2016-12-20T00:42:41.565Z,1026.76
2016-12-20T00:43:51.843Z,1026.78
2016-12-20T00:45:01.834Z,1026.82
2016-12-20T00:46:11.805Z,1026.83
2016-12-20T00:47:22.070Z,1026.83
2016-12-20T00:48:32.525Z,1026.82
2016-12-20T00:49:42.495Z,1026.83
2016-12-20T00:50:52.774Z,1026.77
2016-12-20T00:52:03.078Z,1026.75
2016-12-20T00:53:13.344Z,1026.74
2016-12-20T00:54:23.625Z,1026.81
2016-12-20T00:55:33.894Z,1026.82
2016-12-20T00:56:44.159Z,1026.79
2016-12-20T00:57:54.419Z,1026.79
2016-12-20T00:59:04.394Z,1026.84
2016-12-20T01:00:14.675Z,1026.84
2016-12-20T01:01:24.630Z,1026.83
2016-12-20T01:02:34.918Z,1026.81
2016-12-20T01:03:44.876Z,1026.85
2016-12-20T01:04:55.145Z,1026.81
2016-12-20T01:06:05.094Z,1026.8
2016-12-20T01:07:15.383Z,1026.82
2016-12-20T01:08:25.654Z,1026.8
2016-12-20T01:09:35.610Z,1026.83
2016-12-20T01:10:45.895Z,1026.8
2016-12-20T01:11:56.192Z,1026.73
2016-12-20T01:13:06.155Z,1026.73
2016-12-20T01:14:16.429Z,1026.72
2016-12-20T01:15:26.390Z,1026.72
2016-12-20T01:16:36.349Z,1026.7
2016-12-20T01:17:45.987Z,1026.7
2016-12-20T01:18:55.642Z,1026.66
2016-12-20T01:20:05.597Z,1026.61
2016-12-20T01:21:15.875Z,1026.6
2016-12-20T01:22:26.147Z,1026.55
2016-12-20T01:23:35.492Z,1026.54
2016-12-20T01:24:45.754Z,1026.56
2016-12-20T01:25:55.398Z,1026.5
2016-12-20T01:27:05.360Z,1026.54
2016-12-20T01:28:15.002Z,1026.53
2016-12-20T01:29:24.947Z,1026.55
2016-12-20T01:30:34.900Z,1026.5
2016-12-20T01:31:44.880Z,1026.53
2016-12-20T01:32:55.143Z,1026.51
2016-12-20T01:34:04.791Z,1026.5
2016-12-20T01:35:15.054Z,1026.5
2016-12-20T01:36:25.329Z,1026.51
2016-12-20T01:37:35.610Z,1026.5
2016-12-20T01:38:45.870Z,1026.48
2016-12-20T01:39:56.142Z,1026.47
2016-12-20T01:41:06.430Z,1026.44
2016-12-20T01:42:16.704Z,1026.4
2016-12-20T01:43:26.654Z,1026.4
2016-12-20T01:44:37.149Z,1026.35
2016-12-20T01:45:47.105Z,1026.38
2016-12-20T01:46:57.067Z,1026.38
2016-12-20T01:48:07.066Z,1026.41
2016-12-20T01:49:17.330Z,1026.4
2016-12-20T01:50:26.983Z,1026.43
2016-12-20T01:51:36.923Z,1026.44
2016-12-20T01:52:46.933Z,1026.42
2016-12-20T01:53:56.580Z,1026.39
2016-12-20T01:55:06.846Z,1026.43
2016-12-20T01:56:16.798Z,1026.41
2016-12-20T01:57:26.760Z,1026.43
2016-12-20T01:58:36.718Z,1026.42
2016-12-20T01:59:46.667Z,1026.42
2016-12-20T02:00:56.618Z,1026.4
2016-12-20T02:02:06.891Z,1026.38
2016-12-20T02:03:17.155Z,1026.34
2016-12-20T02:04:26.850Z,1026.37
2016-12-20T02:05:36.501Z,1026.35
2016-12-20T02:06:46.456Z,1026.36
2016-12-20T02:07:56.741Z,1026.41
2016-12-20T02:09:06.703Z,1026.38
2016-12-20T02:10:16.699Z,1026.4
2016-12-20T02:11:26.652Z,1026.39
2016-12-20T02:12:36.922Z,1026.41
2016-12-20T02:13:47.208Z,1026.39
2016-12-20T02:14:57.468Z,1026.37
2016-12-20T02:16:07.740Z,1026.37
2016-12-20T02:17:18.021Z,1026.36
2016-12-20T02:18:27.976Z,1026.35
2016-12-20T02:19:37.938Z,1026.38
2016-12-20T02:20:47.624Z,1026.39
2016-12-20T02:21:57.567Z,1026.36
2016-12-20T02:23:07.816Z,1026.34
2016-12-20T02:24:17.772Z,1026.33
2016-12-20T02:25:27.733Z,1026.35
2016-12-20T02:26:37.688Z,1026.36
2016-12-20T02:27:47.657Z,1026.33
2016-12-20T02:28:57.932Z,1026.37
2016-12-20T02:30:07.893Z,1026.31
2016-12-20T02:31:18.150Z,1026.3
2016-12-20T02:32:28.110Z,1026.31
2016-12-20T02:33:38.060Z,1026.33
2016-12-20T02:34:48.012Z,1026.28
2016-12-20T02:35:57.964Z,1026.25
2016-12-20T02:37:08.232Z,1026.26
2016-12-20T02:38:18.998Z,1026.27
2016-12-20T02:39:28.942Z,1026.25
2016-12-20T02:40:38.895Z,1026.25
2016-12-20T02:41:49.164Z,1026.2
2016-12-20T02:42:59.426Z,1026.12
2016-12-20T02:44:09.689Z,1026.13
2016-12-20T02:45:19.650Z,1026.15
2016-12-20T02:46:29.602Z,1026.13
2016-12-20T02:47:39.862Z,1026.07
2016-12-20T02:48:50.124Z,1026.08
2016-12-20T02:50:00.381Z,1026.03
2016-12-20T02:51:10.646Z,1026.05
2016-12-20T02:52:20.909Z,1026.04
2016-12-20T02:53:31.192Z,1026.02
2016-12-20T02:54:41.161Z,1025.98
2016-12-20T02:55:51.433Z,1025.98
2016-12-20T02:57:01.699Z,1025.9
2016-12-20T02:58:11.049Z,1025.91
2016-12-20T02:59:21.311Z,1025.89
2016-12-20T03:00:31.590Z,1025.9
2016-12-20T03:01:41.574Z,1025.93
2016-12-20T03:02:51.846Z,1025.94
2016-12-20T03:04:02.142Z,1025.98
2016-12-20T03:05:12.399Z,1025.97
2016-12-20T03:06:22.662Z,1025.97
2016-12-20T03:07:32.933Z,1026.02
2016-12-20T03:08:43.206Z,1026.04
2016-12-20T03:09:53.487Z,1026.02
2016-12-20T03:11:03.756Z,1026.01
2016-12-20T03:12:13.711Z,1026.04
2016-12-20T03:13:23.669Z,1026.09
2016-12-20T03:14:33.932Z,1026.07
2016-12-20T03:15:44.201Z,1026.09
2016-12-20T03:16:54.469Z,1026.11
2016-12-20T03:18:04.728Z,1026.03
2016-12-20T03:19:15.020Z,1026.04
2016-12-20T03:20:24.976Z,1026.04
2016-12-20T03:21:35.226Z,1026.06
2016-12-20T03:22:45.490Z,1026.08
2016-12-20T03:23:55.765Z,1025.99
2016-12-20T03:25:06.037Z,1026.05
2016-12-20T03:26:16.306Z,1026.12
2016-12-20T03:27:26.569Z,1026.06
2016-12-20T03:28:36.827Z,1026.11
2016-12-20T03:29:47.091Z,1026.12
2016-12-20T03:30:57.356Z,1026.1
2016-12-20T03:32:07.311Z,1026.06
2016-12-20T03:33:17.579Z,1026.07
2016-12-20T03:34:27.868Z,1026.04
2016-12-20T03:35:38.172Z,1026.07
2016-12-20T03:36:48.434Z,1026.01
2016-12-20T03:37:58.700Z,1026.08
2016-12-20T03:39:08.978Z,1026.02
2016-12-20T03:40:18.931Z,1026.08
2016-12-20T03:41:29.449Z,1026.11
2016-12-20T03:42:39.717Z,1026.08
2016-12-20T03:43:50.038Z,1026.09
2016-12-20T03:45:00.000Z,1026.06
2016-12-20T03:46:10.284Z,1026.1
2016-12-20T03:47:20.550Z,1026.09
2016-12-20T03:48:30.515Z,1026.07
2016-12-20T03:49:40.799Z,1026.05
2016-12-20T03:50:50.793Z,1026.04
2016-12-20T03:52:01.068Z,1026.05
2016-12-20T03:53:11.017Z,1026.02
2016-12-20T03:54:21.295Z,1026.02
2016-12-20T03:55:31.257Z,1025.99
2016-12-20T03:56:40.902Z,1025.99
2016-12-20T03:57:51.162Z,1025.95
2016-12-20T03:59:01.430Z,1025.99
2016-12-20T04:00:11.695Z,1025.95
2016-12-20T04:01:21.672Z,1025.94
2016-12-20T04:02:31.951Z,1025.92
2016-12-20T04:03:42.223Z,1025.95
2016-12-20T04:04:52.511Z,1025.98
2016-12-20T04:06:02.773Z,1025.9
2016-12-20T04:07:12.748Z,1025.99
2016-12-20T04:08:23.013Z,1025.95
2016-12-20T04:09:33.282Z,1025.97
2016-12-20T04:10:43.241Z,1025.98
2016-12-20T04:11:53.542Z,1025.93
2016-12-20T04:13:03.794Z,1025.91
2016-12-20T04:14:14.056Z,1025.9
2016-12-20T04:15:24.005Z,1025.89
2016-12-20T04:16:34.265Z,1025.92
2016-12-20T04:17:44.226Z,1025.92
2016-12-20T04:18:54.194Z,1025.94
2016-12-20T04:20:03.839Z,1025.9
2016-12-20T04:21:14.110Z,1025.89
2016-12-20T04:22:24.069Z,1025.87
2016-12-20T04:23:33.404Z,1025.86
2016-12-20T04:24:42.441Z,1025.81
2016-12-20T04:25:52.728Z,1025.84
2016-12-20T04:27:02.997Z,1025.8
2016-12-20T04:28:12.645Z,1025.83
2016-12-20T04:29:22.600Z,1025.76
2016-12-20T04:30:32.869Z,1025.74
2016-12-20T04:31:43.137Z,1025.79
2016-12-20T04:32:53.439Z,1025.8
2016-12-20T04:34:03.704Z,1025.77
2016-12-20T04:35:13.343Z,1025.83
2016-12-20T04:36:23.314Z,1025.8
2016-12-20T04:37:33.573Z,1025.82
2016-12-20T04:38:43.521Z,1025.8
2016-12-20T04:39:53.178Z,1025.78
2016-12-20T04:41:03.448Z,1025.77
2016-12-20T04:42:13.723Z,1025.82
2016-12-20T04:43:23.982Z,1025.79
2016-12-20T04:44:34.248Z,1025.74
2016-12-20T04:45:44.526Z,1025.8
2016-12-20T04:46:54.793Z,1025.8
2016-12-20T04:48:04.747Z,1025.81
2016-12-20T04:49:14.414Z,1025.78
2016-12-20T04:50:24.680Z,1025.78
2016-12-20T04:51:34.938Z,1025.79
2016-12-20T04:52:44.907Z,1025.81
2016-12-20T04:53:54.853Z,1025.8
2016-12-20T04:55:05.118Z,1025.79
2016-12-20T04:56:15.076Z,1025.75
2016-12-20T04:57:25.057Z,1025.76
2016-12-20T04:58:35.329Z,1025.72
2016-12-20T04:59:45.591Z,1025.67
2016-12-20T05:00:55.845Z,1025.66
2016-12-20T05:02:06.114Z,1025.7
2016-12-20T05:03:16.382Z,1025.72
2016-12-20T05:04:26.363Z,1025.75
2016-12-20T05:05:36.645Z,1025.71
2016-12-20T05:06:46.929Z,1025.7
2016-12-20T05:07:57.198Z,1025.63
2016-12-20T05:09:07.153Z,1025.61
2016-12-20T05:10:17.125Z,1025.63
2016-12-20T05:11:27.390Z,1025.58
2016-12-20T05:12:37.348Z,1025.61
2016-12-20T05:13:47.297Z,1025.61
2016-12-20T05:14:56.967Z,1025.62
2016-12-20T05:16:06.925Z,1025.61
2016-12-20T05:17:16.925Z,1025.64
2016-12-20T05:18:27.940Z,1025.63
2016-12-20T05:19:37.898Z,1025.65
2016-12-20T05:20:48.161Z,1025.68
2016-12-20T05:21:58.119Z,1025.67
2016-12-20T05:23:08.388Z,1025.68
2016-12-20T05:24:18.648Z,1025.66
2016-12-20T05:25:28.913Z,1025.71
2016-12-20T05:26:39.176Z,1025.71
2016-12-20T05:27:49.147Z,1025.72
2016-12-20T05:28:59.096Z,1025.73
2016-12-20T05:30:09.361Z,1025.76
2016-12-20T05:31:19.616Z,1025.72
2016-12-20T05:32:29.572Z,1025.72
2016-12-20T05:33:39.843Z,1025.7
2016-12-20T05:34:49.181Z,1025.73
2016-12-20T05:35:59.441Z,1025.7
2016-12-20T05:37:08.795Z,1025.69
2016-12-20T05:38:18.759Z,1025.67
2016-12-20T05:39:29.027Z,1025.64
2016-12-20T05:40:38.996Z,1025.62
2016-12-20T05:41:48.954Z,1025.61
2016-12-20T05:42:58.919Z,1025.6
2016-12-20T05:44:09.223Z,1025.62
2016-12-20T05:45:19.514Z,1025.59
2016-12-20T05:46:29.787Z,1025.56
2016-12-20T05:47:40.065Z,1025.58
2016-12-20T05:48:50.032Z,1025.58
2016-12-20T05:50:00.308Z,1025.6
2016-12-20T05:51:10.275Z,1025.56
2016-12-20T05:52:20.247Z,1025.59
2016-12-20T05:53:30.205Z,1025.56
2016-12-20T05:54:40.471Z,1025.52
2016-12-20T05:55:50.742Z,1025.56
2016-12-20T05:57:00.699Z,1025.55
2016-12-20T05:58:11.188Z,1025.58
2016-12-20T05:59:21.459Z,1025.59
2016-12-20T06:00:31.735Z,1025.56
2016-12-20T06:01:41.694Z,1025.58
2016-12-20T06:02:51.655Z,1025.57
2016-12-20T06:04:01.633Z,1025.57
2016-12-20T06:05:11.907Z,1025.56
2016-12-20T06:06:22.170Z,1025.59
2016-12-20T06:07:32.116Z,1025.56
2016-12-20T06:08:42.387Z,1025.55
2016-12-20T06:09:52.646Z,1025.48
2016-12-20T06:11:02.944Z,1025.54
2016-12-20T06:12:13.198Z,1025.52
2016-12-20T06:13:23.469Z,1025.52
2016-12-20T06:14:33.421Z,1025.56
2016-12-20T06:15:43.383Z,1025.53
2016-12-20T06:16:53.352Z,1025.55
2016-12-20T06:18:03.306Z,1025.54
2016-12-20T06:19:13.578Z,1025.58
2016-12-20T06:20:23.533Z,1025.61
2016-12-20T06:21:33.494Z,1025.62
2016-12-20T06:22:43.178Z,1025.61
2016-12-20T06:23:53.454Z,1025.68
2016-12-20T06:25:03.418Z,1025.73
2016-12-20T06:26:13.063Z,1025.73
2016-12-20T06:27:22.714Z,1025.74
2016-12-20T06:28:32.362Z,1025.77
2016-12-20T06:29:42.003Z,1025.76
2016-12-20T06:30:51.661Z,1025.8
2016-12-20T06:32:01.642Z,1025.81
2016-12-20T06:33:11.916Z,1025.79
2016-12-20T06:34:21.913Z,1025.75
2016-12-20T06:35:31.882Z,1025.76
2016-12-20T06:36:41.843Z,1025.76
2016-12-20T06:37:51.200Z,1025.74
2016-12-20T06:39:01.165Z,1025.77
2016-12-20T06:40:11.117Z,1025.76
2016-12-20T06:41:21.671Z,1025.71
2016-12-20T06:42:31.960Z,1025.69
2016-12-20T06:43:41.914Z,1025.69
2016-12-20T06:44:51.595Z,1025.74
2016-12-20T06:46:00.947Z,1025.72
2016-12-20T06:47:11.216Z,1025.73
2016-12-20T06:48:21.158Z,1025.71
2016-12-20T06:49:31.427Z,1025.69
2016-12-20T06:50:41.693Z,1025.71
2016-12-20T06:51:51.959Z,1025.68
2016-12-20T06:53:01.915Z,1025.7
2016-12-20T06:54:12.186Z,1025.71
2016-12-20T06:55:22.460Z,1025.76
2016-12-20T06:56:32.112Z,1025.71
2016-12-20T06:57:42.073Z,1025.79
2016-12-20T06:58:52.343Z,1025.78
2016-12-20T07:00:02.602Z,1025.79
2016-12-20T07:01:12.883Z,1025.81
2016-12-20T07:02:22.899Z,1025.8
2016-12-20T07:03:32.540Z,1025.83
2016-12-20T07:04:42.855Z,1025.85
2016-12-20T07:05:52.508Z,1025.89
2016-12-20T07:07:02.471Z,1025.89
2016-12-20T07:08:12.163Z,1025.93
2016-12-20T07:09:22.445Z,1025.93
2016-12-20T07:10:32.403Z,1025.92
2016-12-20T07:11:41.773Z,1025.94
2016-12-20T07:12:51.777Z,1025.9
2016-12-20T07:14:02.105Z,1025.87
2016-12-20T07:15:12.067Z,1025.89
2016-12-20T07:16:21.728Z,1025.84
2016-12-20T07:17:32.010Z,1025.83
2016-12-20T07:18:41.664Z,1025.85
2016-12-20T07:19:52.026Z,1025.84
2016-12-20T07:21:01.984Z,1025.9
2016-12-20T07:22:12.252Z,1025.91
2016-12-20T07:23:22.543Z,1025.91
2016-12-20T07:24:32.818Z,1025.97
2016-12-20T07:25:43.084Z,1026
2016-12-20T07:26:53.407Z,1025.98
2016-12-20T07:28:03.394Z,1025.96
2016-12-20T07:29:13.368Z,1025.97
2016-12-20T07:30:23.368Z,1026.02
2016-12-20T07:31:33.377Z,1025.96
2016-12-20T07:32:43.348Z,1025.97
2016-12-20T07:33:53.389Z,1025.97
2016-12-20T07:35:03.687Z,1025.97
2016-12-20T07:36:13.687Z,1026.03
2016-12-20T07:37:23.975Z,1026.01
2016-12-20T07:38:33.939Z,1026
2016-12-20T07:39:44.223Z,1025.97
2016-12-20T07:40:54.196Z,1025.98
2016-12-20T07:42:04.478Z,1025.96
2016-12-20T07:43:14.134Z,1025.94
2016-12-20T07:44:24.416Z,1025.89
2016-12-20T07:45:34.688Z,1025.95
2016-12-20T07:46:44.649Z,1025.98
2016-12-20T07:47:54.645Z,1026.01
2016-12-20T07:49:03.996Z,1026.06
2016-12-20T07:50:14.278Z,1026.08
2016-12-20T07:51:24.246Z,1026.08
2016-12-20T07:52:34.000Z,1026.1
2016-12-20T07:53:44.037Z,1026.13
2016-12-20T07:54:54.335Z,1026.12
2016-12-20T07:56:04.347Z,1026.16
2016-12-20T07:57:14.627Z,1026.23
2016-12-20T07:58:24.604Z,1026.23
2016-12-20T07:59:34.280Z,1026.21
2016-12-20T08:00:43.934Z,1026.2
2016-12-20T08:01:53.906Z,1026.23
2016-12-20T08:03:04.219Z,1026.19
2016-12-20T08:04:14.648Z,1026.17
2016-12-20T08:05:24.927Z,1026.11
2016-12-20T08:06:34.581Z,1026.09
2016-12-20T08:07:44.562Z,1026.03
2016-12-20T08:08:54.526Z,1026.01
2016-12-20T08:10:04.507Z,1026.04
2016-12-20T08:11:14.782Z,1026.08
2016-12-20T08:12:24.796Z,1026.05
2016-12-20T08:13:35.070Z,1026.06
2016-12-20T08:14:44.720Z,1026.01
2016-12-20T08:15:55.012Z,1026.02
2016-12-20T08:17:04.699Z,1026.02
2016-12-20T08:18:15.026Z,1025.99
2016-12-20T08:19:25.324Z,1025.99
2016-12-20T08:20:34.966Z,1026.01
2016-12-20T08:21:44.975Z,1026.04
2016-12-20T08:22:54.936Z,1026.06
2016-12-20T08:24:05.219Z,1026.02
2016-12-20T08:25:15.509Z,1026.04
2016-12-20T08:26:25.784Z,1026.05
2016-12-20T08:27:36.067Z,1026.05
2016-12-20T08:28:46.054Z,1026.08
2016-12-20T08:29:55.730Z,1026.06
2016-12-20T08:31:06.019Z,1026.07
2016-12-20T08:32:16.346Z,1026.1
2016-12-20T08:33:26.007Z,1026.14
2016-12-20T08:34:35.660Z,1026.12
2016-12-20T08:35:45.936Z,1026.08
2016-12-20T08:36:55.917Z,1026.14
2016-12-20T08:38:04.982Z,1026.17
2016-12-20T08:39:14.634Z,1026.16
2016-12-20T08:40:24.595Z,1026.19
2016-12-20T08:41:34.565Z,1026.13
2016-12-20T08:42:44.817Z,1026.13
2016-12-20T08:43:54.168Z,1026.16
2016-12-20T08:45:04.237Z,1026.13
2016-12-20T08:46:14.535Z,1026.11
2016-12-20T08:47:24.577Z,1026.09
2016-12-20T08:48:34.794Z,1026.05
2016-12-20T08:49:45.067Z,1026.06
2016-12-20T08:50:55.022Z,1026.07
2016-12-20T08:52:05.316Z,1026.05
2016-12-20T08:53:15.637Z,1025.98
2016-12-20T08:54:25.935Z,1025.97
2016-12-20T08:55:36.220Z,1025.98
2016-12-20T08:56:46.229Z,1025.98
2016-12-20T08:57:55.893Z,1026.04
2016-12-20T08:59:05.848Z,1026.02
2016-12-20T09:00:15.807Z,1026.11
2016-12-20T09:01:26.083Z,1025.99
2016-12-20T09:02:35.753Z,1026.01
2016-12-20T09:03:45.407Z,1026
2016-12-20T09:04:55.400Z,1025.99
2016-12-20T09:06:05.705Z,1025.99
2016-12-20T09:07:15.670Z,1025.98
2016-12-20T09:08:25.654Z,1025.93
2016-12-20T09:09:35.617Z,1025.94
2016-12-20T09:10:45.271Z,1025.91
2016-12-20T09:11:55.258Z,1025.93
2016-12-20T09:13:05.546Z,1025.97
2016-12-20T09:14:15.527Z,1025.94
2016-12-20T09:15:24.880Z,1025.94
2016-12-20T09:16:35.174Z,1025.9
2016-12-20T09:17:45.152Z,1025.86
2016-12-20T09:18:55.421Z,1025.85
2016-12-20T09:20:05.741Z,1025.83
2016-12-20T09:21:15.421Z,1025.82
2016-12-20T09:22:25.694Z,1025.82
2016-12-20T09:23:35.675Z,1025.82
2016-12-20T09:24:45.959Z,1025.75
2016-12-20T09:25:55.944Z,1025.77
2016-12-20T09:27:06.219Z,1025.71
2016-12-20T09:28:15.881Z,1025.72
2016-12-20T09:29:25.858Z,1025.7
2016-12-20T09:30:35.845Z,1025.64
2016-12-20T09:31:46.132Z,1025.63
2016-12-20T09:32:56.137Z,1025.55
2016-12-20T09:34:06.420Z,1025.57
2016-12-20T09:35:16.075Z,1025.55
2016-12-20T09:36:26.337Z,1025.57
2016-12-20T09:37:36.309Z,1025.56
2016-12-20T09:38:46.008Z,1025.59
2016-12-20T09:39:55.986Z,1025.57
2016-12-20T09:41:05.954Z,1025.56
2016-12-20T09:42:16.223Z,1025.59
2016-12-20T09:43:26.210Z,1025.59
2016-12-20T09:44:36.181Z,1025.56
2016-12-20T09:45:46.463Z,1025.59
2016-12-20T09:46:56.645Z,1025.56
2016-12-20T09:48:06.014Z,1025.53
2016-12-20T09:49:15.717Z,1025.54
2016-12-20T09:50:25.365Z,1025.66
2016-12-20T09:51:35.649Z,1025.61
2016-12-20T09:52:45.854Z,1025.57
2016-12-20T09:53:55.957Z,1025.64
2016-12-20T09:55:05.960Z,1025.66
2016-12-20T09:56:15.951Z,1025.64
2016-12-20T09:57:26.259Z,1025.62
2016-12-20T09:58:36.543Z,1025.6
2016-12-20T09:59:46.527Z,1025.57
2016-12-20T10:00:56.815Z,1025.58
2016-12-20T10:02:07.097Z,1025.57
2016-12-20T10:03:17.113Z,1025.55
2016-12-20T10:04:27.387Z,1025.55
2016-12-20T10:05:37.701Z,1025.58
2016-12-20T10:06:47.352Z,1025.55
2016-12-20T10:07:57.625Z,1025.61
2016-12-20T10:09:07.923Z,1025.62
2016-12-20T10:10:18.204Z,1025.64
2016-12-20T10:11:28.514Z,1025.64
2016-12-20T10:12:38.854Z,1025.7
2016-12-20T10:13:48.824Z,1025.67
2016-12-20T10:14:59.116Z,1025.64
2016-12-20T10:16:08.772Z,1025.61
2016-12-20T10:17:18.780Z,1025.56
2016-12-20T10:18:29.011Z,1025.54
2016-12-20T10:19:39.544Z,1025.49
2016-12-20T10:20:49.513Z,1025.48
2016-12-20T10:21:59.810Z,1025.46
2016-12-20T10:23:10.102Z,1025.51
2016-12-20T10:24:20.374Z,1025.42
2016-12-20T10:25:30.661Z,1025.4
2016-12-20T10:26:40.943Z,1025.39
2016-12-20T10:27:50.929Z,1025.39
2016-12-20T10:29:01.206Z,1025.37
2016-12-20T10:30:11.506Z,1025.33
2016-12-20T10:31:21.768Z,1025.32
2016-12-20T10:32:32.050Z,1025.32
2016-12-20T10:33:42.328Z,1025.35
2016-12-20T10:34:52.613Z,1025.28
2016-12-20T10:36:01.989Z,1025.27
2016-12-20T10:37:11.954Z,1025.2
2016-12-20T10:38:21.928Z,1025.21
2016-12-20T10:39:32.217Z,1025.18
2016-12-20T10:40:42.187Z,1025.22
2016-12-20T10:41:52.569Z,1025.23
2016-12-20T10:43:02.547Z,1025.19
2016-12-20T10:44:12.827Z,1025.24
2016-12-20T10:45:22.808Z,1025.21
2016-12-20T10:46:32.770Z,1025.25
2016-12-20T10:47:42.741Z,1025.25
2016-12-20T10:48:51.775Z,1025.26
2016-12-20T10:50:01.739Z,1025.25
2016-12-20T10:51:11.419Z,1025.31
2016-12-20T10:52:20.754Z,1025.27
2016-12-20T10:53:30.440Z,1025.28
2016-12-20T10:54:40.414Z,1025.28
2016-12-20T10:55:50.734Z,1025.28
2016-12-20T10:57:00.997Z,1025.22
2016-12-20T10:58:10.338Z,1025.26
2016-12-20T10:59:20.319Z,1025.21
2016-12-20T11:00:30.280Z,1025.2
2016-12-20T11:01:40.248Z,1025.17
2016-12-20T11:02:50.235Z,1025.17
2016-12-20T11:04:00.508Z,1025.13
2016-12-20T11:05:10.808Z,1025.13
2016-12-20T11:06:21.080Z,1025.09
2016-12-20T11:07:31.346Z,1025.07
2016-12-20T11:08:41.291Z,1025.08
2016-12-20T11:09:51.250Z,1025.05
2016-12-20T11:11:01.535Z,1025.06
2016-12-20T11:12:11.503Z,1025.04
2016-12-20T11:13:21.784Z,1024.99
2016-12-20T11:14:32.071Z,1024.98
2016-12-20T11:15:42.344Z,1024.98
2016-12-20T11:16:52.300Z,1025
2016-12-20T11:18:02.277Z,1025.03
2016-12-20T11:19:12.536Z,1024.99
2016-12-20T11:20:22.825Z,1024.99
2016-12-20T11:21:33.424Z,1024.99
2016-12-20T11:22:43.419Z,1025.01
2016-12-20T11:23:53.746Z,1025.02
2016-12-20T11:25:04.078Z,1024.98
2016-12-20T11:26:14.606Z,1024.96
2016-12-20T11:27:24.264Z,1024.92
2016-12-20T11:28:34.565Z,1024.96
2016-12-20T11:29:44.852Z,1024.96
2016-12-20T11:30:55.157Z,1024.92
2016-12-20T11:32:04.812Z,1024.94
2016-12-20T11:33:15.073Z,1024.92
2016-12-20T11:34:25.042Z,1024.9
2016-12-20T11:35:35.016Z,1024.85
2016-12-20T11:36:45.038Z,1024.83
2016-12-20T11:37:55.323Z,1024.88
2016-12-20T11:39:05.300Z,1024.9
2016-12-20T11:40:15.585Z,1024.88
2016-12-20T11:41:25.275Z,1024.91
2016-12-20T11:42:35.571Z,1024.89
2016-12-20T11:43:45.224Z,1024.88
2016-12-20T11:44:55.489Z,1024.86
2016-12-20T11:46:05.869Z,1024.85
2016-12-20T11:47:16.218Z,1024.8
2016-12-20T11:48:26.221Z,1024.82
2016-12-20T11:49:36.523Z,1024.82
2016-12-20T11:50:46.818Z,1024.81
2016-12-20T11:51:56.806Z,1024.81
2016-12-20T11:53:06.838Z,1024.77
2016-12-20T11:54:16.512Z,1024.78
2016-12-20T11:55:26.886Z,1024.79
2016-12-20T11:56:37.177Z,1024.76
2016-12-20T11:57:47.416Z,1024.73
2016-12-20T11:58:57.420Z,1024.78
2016-12-20T12:00:07.697Z,1024.74
2016-12-20T12:01:17.675Z,1024.76
2016-12-20T12:02:27.653Z,1024.75
2016-12-20T12:03:37.941Z,1024.71
2016-12-20T12:04:47.906Z,1024.67
2016-12-20T12:05:57.869Z,1024.65
2016-12-20T12:07:08.146Z,1024.58
2016-12-20T12:08:18.116Z,1024.53
2016-12-20T12:09:28.071Z,1024.52
2016-12-20T12:10:38.346Z,1024.39
2016-12-20T12:11:48.631Z,1024.33
2016-12-20T12:12:58.906Z,1024.38
2016-12-20T12:14:08.877Z,1024.36
2016-12-20T12:15:18.845Z,1024.3
2016-12-20T12:16:28.841Z,1024.32
2016-12-20T12:17:38.797Z,1024.27
2016-12-20T12:18:48.783Z,1024.21
2016-12-20T12:19:59.048Z,1024.16
2016-12-20T12:21:08.715Z,1024.18
2016-12-20T12:22:19.018Z,1024.11
2016-12-20T12:23:29.312Z,1024.1
2016-12-20T12:24:39.280Z,1024.09
2016-12-20T12:25:49.245Z,1024.11
2016-12-20T12:26:59.526Z,1024.09
2016-12-20T12:28:09.801Z,1024.12
2016-12-20T12:29:20.371Z,1024.13
2016-12-20T12:30:30.340Z,1024.08
2016-12-20T12:31:40.307Z,1024.09
2016-12-20T12:32:50.618Z,1024.07
2016-12-20T12:34:00.939Z,1024.07
2016-12-20T12:35:11.220Z,1024.06
2016-12-20T12:36:20.874Z,1024.04
2016-12-20T12:37:31.147Z,1024.05
2016-12-20T12:38:41.463Z,1024.11
2016-12-20T12:39:51.434Z,1024.07
2016-12-20T12:41:01.492Z,1024.07
2016-12-20T12:42:11.143Z,1024.08
2016-12-20T12:43:21.165Z,1024.08
2016-12-20T12:44:31.179Z,1024.06
2016-12-20T12:45:41.159Z,1024.08
2016-12-20T12:46:50.810Z,1024.07
2016-12-20T12:48:00.484Z,1024.02
2016-12-20T12:49:10.460Z,1024
2016-12-20T12:50:20.129Z,1023.94
2016-12-20T12:51:30.401Z,1023.98
2016-12-20T12:52:40.366Z,1023.96
2016-12-20T12:53:50.382Z,1023.98
2016-12-20T12:55:01.147Z,1023.93
2016-12-20T12:56:10.813Z,1023.94
2016-12-20T12:57:21.101Z,1023.97
2016-12-20T12:58:31.060Z,1023.95
2016-12-20T12:59:40.712Z,1023.93
2016-12-20T13:00:50.683Z,1023.89
2016-12-20T13:02:00.657Z,1023.92
2016-12-20T13:03:10.651Z,1023.9
2016-12-20T13:04:21.054Z,1023.86
2016-12-20T13:05:30.721Z,1023.86
2016-12-20T13:06:40.708Z,1023.83
2016-12-20T13:07:50.680Z,1023.86
2016-12-20T13:09:00.027Z,1023.89
2016-12-20T13:10:10.311Z,1023.86
2016-12-20T13:11:20.600Z,1023.85
2016-12-20T13:12:30.276Z,1023.81
2016-12-20T13:13:40.548Z,1023.8
2016-12-20T13:14:50.520Z,1023.76
2016-12-20T13:16:00.478Z,1023.74
2016-12-20T13:17:10.750Z,1023.74
2016-12-20T13:18:21.019Z,1023.76
2016-12-20T13:19:31.296Z,1023.76
2016-12-20T13:20:41.569Z,1023.75
2016-12-20T13:21:51.537Z,1023.75
2016-12-20T13:23:01.197Z,1023.8
2016-12-20T13:24:11.469Z,1023.79
2016-12-20T13:25:21.134Z,1023.83
2016-12-20T13:26:31.144Z,1023.83
2016-12-20T13:27:41.435Z,1023.86
2016-12-20T13:28:51.390Z,1023.85
2016-12-20T13:30:01.659Z,1023.86
2016-12-20T13:31:11.927Z,1023.82
2016-12-20T13:32:22.209Z,1023.8
2016-12-20T13:33:32.484Z,1023.84
2016-12-20T13:34:42.768Z,1023.87
2016-12-20T13:35:52.779Z,1023.86
2016-12-20T13:37:03.057Z,1023.85
2016-12-20T13:38:13.379Z,1023.83
2016-12-20T13:39:23.687Z,1023.8
2016-12-20T13:40:33.960Z,1023.77
2016-12-20T13:41:44.264Z,1023.71
2016-12-20T13:42:54.599Z,1023.69
2016-12-20T13:44:04.251Z,1023.7
2016-12-20T13:45:14.530Z,1023.64
2016-12-20T13:46:24.205Z,1023.65
2016-12-20T13:47:34.477Z,1023.67
2016-12-20T13:48:44.772Z,1023.6
2016-12-20T13:49:55.051Z,1023.62
2016-12-20T13:51:05.345Z,1023.58
2016-12-20T13:52:15.629Z,1023.54
2016-12-20T13:53:25.921Z,1023.57
2016-12-20T13:54:36.232Z,1023.49
2016-12-20T13:55:46.497Z,1023.5
2016-12-20T13:56:56.763Z,1023.5
2016-12-20T13:58:06.735Z,1023.52
2016-12-20T13:59:17.041Z,1023.5
2016-12-20T14:00:27.378Z,1023.56
2016-12-20T14:01:37.662Z,1023.5
2016-12-20T14:02:47.633Z,1023.46
2016-12-20T14:03:57.895Z,1023.51
2016-12-20T14:05:08.180Z,1023.57
2016-12-20T14:06:18.462Z,1023.49
2016-12-20T14:07:28.443Z,1023.54
2016-12-20T14:08:38.731Z,1023.56
2016-12-20T14:09:49.010Z,1023.58
2016-12-20T14:10:59.285Z,1023.57